sensor_id;sensor_type;location;lat;lon;timestamp;temperature;humidity
18934;DHT22;9599;53.706;10.384;2023-02-10T00:01:02;3.80;99.90
18934;DHT22;9599;53.706;10.384;2023-02-10T00:03:31;3.80;99.90
18934;DHT22;9599;53.706;10.384;2023-02-10T00:06:00;3.80;99.90
18934;DHT22;9599;53.706;10.384;2023-02-10T00:08:28;3.80;99.90
18934;DHT22;9599;53.706;10.384;2023-02-10T00:10:57;3.90;99.90
18934;DHT22;9599;53.706;10.384;2023-02-10T00:13:26;3.90;99.90
18934;DHT22;9599;53.706;10.384;2023-02-10T00:15:56;3.80;99.90
18934;DHT22;9599;53.706;10.384;2023-02-10T00:18:25;3.90;99.90
18934;DHT22;9599;53.706;10.384;2023-02-10T00:20:53;3.90;99.90
18934;DHT22;9599;53.706;10.384;2023-02-10T00:23:21;3.90;99.90
18934;DHT22;9599;53.706;10.384;2023-02-10T00:25:49;3.90;99.90
18934;DHT22;9599;53.706;10.384;2023-02-10T00:28:17;3.90;99.90
18934;DHT22;9599;53.706;10.384;2023-02-10T00:30:45;3.90;99.90
18934;DHT22;9599;53.706;10.384;2023-02-10T00:33:15;4.00;99.90
18934;DHT22;9599;53.706;10.384;2023-02-10T00:35:44;4.00;99.90
18934;DHT22;9599;53.706;10.384;2023-02-10T00:38:13;4.00;99.90
18934;DHT22;9599;53.706;10.384;2023-02-10T00:40:41;4.00;99.90
18934;DHT22;9599;53.706;10.384;2023-02-10T00:43:09;4.00;99.90
18934;DHT22;9599;53.706;10.384;2023-02-10T00:45:37;4.00;99.90
18934;DHT22;9599;53.706;10.384;2023-02-10T00:48:05;4.00;99.90
18934;DHT22;9599;53.706;10.384;2023-02-10T00:50:34;4.00;99.90
18934;DHT22;9599;53.706;10.384;2023-02-10T00:53:02;4.00;99.90
18934;DHT22;9599;53.706;10.384;2023-02-10T00:55:30;4.00;99.90
18934;DHT22;9599;53.706;10.384;2023-02-10T00:57:57;4.10;99.90
18934;DHT22;9599;53.706;10.384;2023-02-10T01:00:25;4.10;99.90
18934;DHT22;9599;53.706;10.384;2023-02-10T01:02:53;4.10;99.90
18934;DHT22;9599;53.706;10.384;2023-02-10T01:05:21;4.10;99.90
18934;DHT22;9599;53.706;10.384;2023-02-10T01:07:50;4.10;99.90
18934;DHT22;9599;53.706;10.384;2023-02-10T01:10:19;4.10;99.90
18934;DHT22;9599;53.706;10.384;2023-02-10T01:12:47;4.10;99.90
18934;DHT22;9599;53.706;10.384;2023-02-10T01:15:15;4.10;99.90
18934;DHT22;9599;53.706;10.384;2023-02-10T01:17:43;4.10;99.90
18934;DHT22;9599;53.706;10.384;2023-02-10T01:20:11;4.10;99.90
18934;DHT22;9599;53.706;10.384;2023-02-10T01:22:39;4.20;99.90
18934;DHT22;9599;53.706;10.384;2023-02-10T01:25:08;4.20;99.90
18934;DHT22;9599;53.706;10.384;2023-02-10T01:27:36;4.20;99.90
18934;DHT22;9599;53.706;10.384;2023-02-10T01:30:07;4.20;99.90
18934;DHT22;9599;53.706;10.384;2023-02-10T01:32:36;4.20;99.90
18934;DHT22;9599;53.706;10.384;2023-02-10T01:35:04;4.30;99.90
18934;DHT22;9599;53.706;10.384;2023-02-10T01:37:33;4.20;99.90
18934;DHT22;9599;53.706;10.384;2023-02-10T01:40:03;4.30;99.90
18934;DHT22;9599;53.706;10.384;2023-02-10T01:42:33;4.20;99.90
18934;DHT22;9599;53.706;10.384;2023-02-10T01:45:19;4.20;99.90
18934;DHT22;9599;53.706;10.384;2023-02-10T01:47:51;4.20;99.90
18934;DHT22;9599;53.706;10.384;2023-02-10T01:50:23;4.20;99.90
18934;DHT22;9599;53.706;10.384;2023-02-10T01:52:52;4.20;99.90
18934;DHT22;9599;53.706;10.384;2023-02-10T01:55:22;4.20;99.90
18934;DHT22;9599;53.706;10.384;2023-02-10T01:57:54;4.20;99.90
18934;DHT22;9599;53.706;10.384;2023-02-10T02:00:23;4.10;99.90
18934;DHT22;9599;53.706;10.384;2023-02-10T02:02:51;4.10;99.90
18934;DHT22;9599;53.706;10.384;2023-02-10T02:05:27;4.10;99.90
18934;DHT22;9599;53.706;10.384;2023-02-10T02:08:00;4.00;99.90
18934;DHT22;9599;53.706;10.384;2023-02-10T02:10:42;4.00;99.90
18934;DHT22;9599;53.706;10.384;2023-02-10T02:13:16;3.90;99.90
18934;DHT22;9599;53.706;10.384;2023-02-10T02:15:50;3.90;99.90
18934;DHT22;9599;53.706;10.384;2023-02-10T02:18:25;3.90;99.90
18934;DHT22;9599;53.706;10.384;2023-02-10T02:21:22;3.90;99.90
18934;DHT22;9599;53.706;10.384;2023-02-10T02:24:12;3.90;99.90
18934;DHT22;9599;53.706;10.384;2023-02-10T02:26:55;3.80;99.90
18934;DHT22;9599;53.706;10.384;2023-02-10T02:29:48;3.80;99.90
18934;DHT22;9599;53.706;10.384;2023-02-10T02:32:19;3.80;99.90
18934;DHT22;9599;53.706;10.384;2023-02-10T02:34:51;3.80;99.90
18934;DHT22;9599;53.706;10.384;2023-02-10T02:37:22;3.80;99.90
18934;DHT22;9599;53.706;10.384;2023-02-10T02:39:52;3.70;99.90
18934;DHT22;9599;53.706;10.384;2023-02-10T02:42:23;3.70;99.90
18934;DHT22;9599;53.706;10.384;2023-02-10T02:44:54;3.70;99.90
18934;DHT22;9599;53.706;10.384;2023-02-10T02:47:37;3.70;99.90
18934;DHT22;9599;53.706;10.384;2023-02-10T02:50:18;3.70;99.90
18934;DHT22;9599;53.706;10.384;2023-02-10T02:55:49;3.60;99.90
18934;DHT22;9599;53.706;10.384;2023-02-10T02:58:24;3.60;99.90
18934;DHT22;9599;53.706;10.384;2023-02-10T03:00:57;3.60;99.90
18934;DHT22;9599;53.706;10.384;2023-02-10T03:03:33;3.50;99.90
18934;DHT22;9599;53.706;10.384;2023-02-10T03:06:02;3.50;99.90
18934;DHT22;9599;53.706;10.384;2023-02-10T03:08:32;3.40;99.90
18934;DHT22;9599;53.706;10.384;2023-02-10T03:11:01;3.40;99.90
18934;DHT22;9599;53.706;10.384;2023-02-10T03:13:28;3.40;99.90
18934;DHT22;9599;53.706;10.384;2023-02-10T03:15:57;3.40;99.90
18934;DHT22;9599;53.706;10.384;2023-02-10T03:18:26;3.40;99.90
18934;DHT22;9599;53.706;10.384;2023-02-10T03:21:17;3.60;99.90
18934;DHT22;9599;53.706;10.384;2023-02-10T03:23:44;3.60;99.90
18934;DHT22;9599;53.706;10.384;2023-02-10T03:26:13;3.60;99.90
18934;DHT22;9599;53.706;10.384;2023-02-10T03:28:41;3.60;99.90
18934;DHT22;9599;53.706;10.384;2023-02-10T03:31:09;3.60;99.90
18934;DHT22;9599;53.706;10.384;2023-02-10T03:33:37;3.70;99.90
18934;DHT22;9599;53.706;10.384;2023-02-10T03:36:05;3.70;99.90
18934;DHT22;9599;53.706;10.384;2023-02-10T03:38:35;3.70;99.90
18934;DHT22;9599;53.706;10.384;2023-02-10T03:41:03;3.70;99.90
18934;DHT22;9599;53.706;10.384;2023-02-10T03:43:31;3.70;99.90
18934;DHT22;9599;53.706;10.384;2023-02-10T03:46:00;3.70;99.90
18934;DHT22;9599;53.706;10.384;2023-02-10T03:48:29;3.70;99.90
18934;DHT22;9599;53.706;10.384;2023-02-10T03:50:58;3.70;99.90
18934;DHT22;9599;53.706;10.384;2023-02-10T03:53:27;3.70;99.90
18934;DHT22;9599;53.706;10.384;2023-02-10T03:55:57;3.80;99.90
18934;DHT22;9599;53.706;10.384;2023-02-10T03:58:25;3.80;99.90
18934;DHT22;9599;53.706;10.384;2023-02-10T04:00:53;3.70;99.90
18934;DHT22;9599;53.706;10.384;2023-02-10T04:03:21;3.80;99.90
18934;DHT22;9599;53.706;10.384;2023-02-10T04:05:49;3.80;99.90
18934;DHT22;9599;53.706;10.384;2023-02-10T04:08:17;3.80;99.90
18934;DHT22;9599;53.706;10.384;2023-02-10T04:10:45;3.90;99.90
18934;DHT22;9599;53.706;10.384;2023-02-10T04:13:15;3.90;99.90
18934;DHT22;9599;53.706;10.384;2023-02-10T04:15:42;3.90;99.90
18934;DHT22;9599;53.706;10.384;2023-02-10T04:18:10;3.90;99.90
18934;DHT22;9599;53.706;10.384;2023-02-10T04:20:38;3.90;99.90
18934;DHT22;9599;53.706;10.384;2023-02-10T04:23:06;3.90;99.90
18934;DHT22;9599;53.706;10.384;2023-02-10T04:25:34;4.00;99.90
18934;DHT22;9599;53.706;10.384;2023-02-10T04:28:02;4.00;99.90
18934;DHT22;9599;53.706;10.384;2023-02-10T04:30:31;4.00;99.90
18934;DHT22;9599;53.706;10.384;2023-02-10T04:32:59;4.00;99.90
18934;DHT22;9599;53.706;10.384;2023-02-10T04:35:27;4.10;99.90
18934;DHT22;9599;53.706;10.384;2023-02-10T04:37:55;4.10;99.90
18934;DHT22;9599;53.706;10.384;2023-02-10T04:40:25;4.10;99.90
18934;DHT22;9599;53.706;10.384;2023-02-10T04:42:53;4.10;99.90
18934;DHT22;9599;53.706;10.384;2023-02-10T04:45:21;4.10;99.90
18934;DHT22;9599;53.706;10.384;2023-02-10T04:47:50;4.10;99.90
18934;DHT22;9599;53.706;10.384;2023-02-10T04:50:18;4.10;99.90
18934;DHT22;9599;53.706;10.384;2023-02-10T04:52:46;4.10;99.90
18934;DHT22;9599;53.706;10.384;2023-02-10T04:55:15;4.10;99.90
18934;DHT22;9599;53.706;10.384;2023-02-10T04:57:43;4.10;99.90
18934;DHT22;9599;53.706;10.384;2023-02-10T05:00:12;4.10;99.90
18934;DHT22;9599;53.706;10.384;2023-02-10T05:02:40;4.10;99.90
18934;DHT22;9599;53.706;10.384;2023-02-10T05:05:11;4.10;99.90
18934;DHT22;9599;53.706;10.384;2023-02-10T05:07:39;4.10;99.90
18934;DHT22;9599;53.706;10.384;2023-02-10T05:10:07;4.10;99.90
18934;DHT22;9599;53.706;10.384;2023-02-10T05:12:36;4.10;99.90
18934;DHT22;9599;53.706;10.384;2023-02-10T05:15:04;4.20;99.90
18934;DHT22;9599;53.706;10.384;2023-02-10T05:17:34;4.20;99.90
18934;DHT22;9599;53.706;10.384;2023-02-10T05:20:02;4.20;99.90
18934;DHT22;9599;53.706;10.384;2023-02-10T05:22:34;4.20;99.90
18934;DHT22;9599;53.706;10.384;2023-02-10T05:25:03;4.20;99.90
18934;DHT22;9599;53.706;10.384;2023-02-10T05:27:31;4.20;99.90
18934;DHT22;9599;53.706;10.384;2023-02-10T05:29:58;4.20;99.90
18934;DHT22;9599;53.706;10.384;2023-02-10T05:32:26;4.20;99.90
18934;DHT22;9599;53.706;10.384;2023-02-10T05:34:54;4.20;99.90
18934;DHT22;9599;53.706;10.384;2023-02-10T05:37:22;4.20;99.90
18934;DHT22;9599;53.706;10.384;2023-02-10T05:39:51;4.20;99.90
18934;DHT22;9599;53.706;10.384;2023-02-10T05:42:19;4.30;99.90
18934;DHT22;9599;53.706;10.384;2023-02-10T05:44:47;4.30;99.90
18934;DHT22;9599;53.706;10.384;2023-02-10T05:47:15;4.30;99.90
18934;DHT22;9599;53.706;10.384;2023-02-10T05:49:43;4.30;99.90
18934;DHT22;9599;53.706;10.384;2023-02-10T05:52:11;4.30;99.90
18934;DHT22;9599;53.706;10.384;2023-02-10T05:54:38;4.30;99.90
18934;DHT22;9599;53.706;10.384;2023-02-10T05:57:08;4.30;99.90
18934;DHT22;9599;53.706;10.384;2023-02-10T05:59:36;4.30;99.90
18934;DHT22;9599;53.706;10.384;2023-02-10T06:02:04;4.30;99.90
18934;DHT22;9599;53.706;10.384;2023-02-10T06:04:33;4.20;99.90
18934;DHT22;9599;53.706;10.384;2023-02-10T06:07:00;4.20;99.90
18934;DHT22;9599;53.706;10.384;2023-02-10T06:09:29;4.20;99.90
18934;DHT22;9599;53.706;10.384;2023-02-10T06:11:57;4.30;99.90
18934;DHT22;9599;53.706;10.384;2023-02-10T06:14:27;4.30;99.90
18934;DHT22;9599;53.706;10.384;2023-02-10T06:16:56;4.20;99.90
18934;DHT22;9599;53.706;10.384;2023-02-10T06:19:24;4.20;99.90
18934;DHT22;9599;53.706;10.384;2023-02-10T06:21:52;4.20;99.90
18934;DHT22;9599;53.706;10.384;2023-02-10T06:24:20;4.10;99.90
18934;DHT22;9599;53.706;10.384;2023-02-10T06:26:48;4.20;99.90
18934;DHT22;9599;53.706;10.384;2023-02-10T06:29:15;4.20;99.90
18934;DHT22;9599;53.706;10.384;2023-02-10T06:31:45;4.20;99.90
18934;DHT22;9599;53.706;10.384;2023-02-10T06:34:13;4.20;99.90
18934;DHT22;9599;53.706;10.384;2023-02-10T06:36:41;4.20;99.90
18934;DHT22;9599;53.706;10.384;2023-02-10T06:39:09;4.20;99.90
18934;DHT22;9599;53.706;10.384;2023-02-10T06:41:37;4.20;99.90
18934;DHT22;9599;53.706;10.384;2023-02-10T06:44:05;4.20;99.90
18934;DHT22;9599;53.706;10.384;2023-02-10T06:46:33;4.10;99.90
18934;DHT22;9599;53.706;10.384;2023-02-10T06:49:03;4.10;99.90
18934;DHT22;9599;53.706;10.384;2023-02-10T06:51:30;4.10;99.90
18934;DHT22;9599;53.706;10.384;2023-02-10T06:53:58;4.10;99.90
18934;DHT22;9599;53.706;10.384;2023-02-10T06:56:26;4.10;99.90
18934;DHT22;9599;53.706;10.384;2023-02-10T06:58:54;4.10;99.90
18934;DHT22;9599;53.706;10.384;2023-02-10T07:01:23;4.10;99.90
18934;DHT22;9599;53.706;10.384;2023-02-10T07:03:51;4.20;99.90
18934;DHT22;9599;53.706;10.384;2023-02-10T07:06:20;4.20;99.90
18934;DHT22;9599;53.706;10.384;2023-02-10T07:08:48;4.20;99.90
18934;DHT22;9599;53.706;10.384;2023-02-10T07:11:17;4.20;99.90
18934;DHT22;9599;53.706;10.384;2023-02-10T07:13:45;4.30;99.90
18934;DHT22;9599;53.706;10.384;2023-02-10T07:16:13;4.30;99.90
18934;DHT22;9599;53.706;10.384;2023-02-10T07:18:43;4.20;99.90
18934;DHT22;9599;53.706;10.384;2023-02-10T07:21:11;4.20;99.90
18934;DHT22;9599;53.706;10.384;2023-02-10T07:23:40;4.20;99.90
18934;DHT22;9599;53.706;10.384;2023-02-10T07:26:11;4.20;99.90
18934;DHT22;9599;53.706;10.384;2023-02-10T07:28:39;4.30;99.90
18934;DHT22;9599;53.706;10.384;2023-02-10T07:31:08;4.30;99.90
18934;DHT22;9599;53.706;10.384;2023-02-10T07:33:36;4.30;99.90
18934;DHT22;9599;53.706;10.384;2023-02-10T07:36:06;4.30;99.90
18934;DHT22;9599;53.706;10.384;2023-02-10T07:38:34;4.40;99.90
18934;DHT22;9599;53.706;10.384;2023-02-10T07:41:06;4.40;99.90
18934;DHT22;9599;53.706;10.384;2023-02-10T07:43:35;4.40;99.90
18934;DHT22;9599;53.706;10.384;2023-02-10T07:46:10;4.50;99.90
18934;DHT22;9599;53.706;10.384;2023-02-10T07:48:38;4.40;99.90
18934;DHT22;9599;53.706;10.384;2023-02-10T07:51:06;4.50;99.90
18934;DHT22;9599;53.706;10.384;2023-02-10T07:53:34;4.50;99.90
18934;DHT22;9599;53.706;10.384;2023-02-10T07:56:05;4.50;99.90
18934;DHT22;9599;53.706;10.384;2023-02-10T07:58:33;4.60;99.90
18934;DHT22;9599;53.706;10.384;2023-02-10T08:01:06;4.50;99.90
18934;DHT22;9599;53.706;10.384;2023-02-10T08:03:34;4.60;99.90
18934;DHT22;9599;53.706;10.384;2023-02-10T08:06:02;4.60;99.90
18934;DHT22;9599;53.706;10.384;2023-02-10T08:08:30;4.60;99.90
18934;DHT22;9599;53.706;10.384;2023-02-10T08:10:58;4.60;99.90
18934;DHT22;9599;53.706;10.384;2023-02-10T08:13:27;4.60;99.90
18934;DHT22;9599;53.706;10.384;2023-02-10T08:15:56;4.70;99.90
18934;DHT22;9599;53.706;10.384;2023-02-10T08:18:24;4.70;99.90
18934;DHT22;9599;53.706;10.384;2023-02-10T08:20:52;4.70;99.90
18934;DHT22;9599;53.706;10.384;2023-02-10T08:23:20;4.70;99.90
18934;DHT22;9599;53.706;10.384;2023-02-10T08:25:48;4.70;99.90
18934;DHT22;9599;53.706;10.384;2023-02-10T08:28:17;4.70;99.90
18934;DHT22;9599;53.706;10.384;2023-02-10T08:30:47;4.70;99.90
18934;DHT22;9599;53.706;10.384;2023-02-10T08:33:15;4.70;99.90
18934;DHT22;9599;53.706;10.384;2023-02-10T08:35:43;4.70;99.90
18934;DHT22;9599;53.706;10.384;2023-02-10T08:38:11;4.80;99.90
18934;DHT22;9599;53.706;10.384;2023-02-10T08:40:39;4.80;99.90
18934;DHT22;9599;53.706;10.384;2023-02-10T08:43:07;4.80;99.90
18934;DHT22;9599;53.706;10.384;2023-02-10T08:45:37;4.90;99.90
18934;DHT22;9599;53.706;10.384;2023-02-10T08:48:08;4.90;99.90
18934;DHT22;9599;53.706;10.384;2023-02-10T08:50:36;5.00;99.90
18934;DHT22;9599;53.706;10.384;2023-02-10T08:53:05;5.00;99.90
18934;DHT22;9599;53.706;10.384;2023-02-10T08:55:32;5.10;99.90
18934;DHT22;9599;53.706;10.384;2023-02-10T08:58:00;5.00;99.90
18934;DHT22;9599;53.706;10.384;2023-02-10T09:00:28;5.00;99.90
18934;DHT22;9599;53.706;10.384;2023-02-10T09:02:56;5.00;99.90
18934;DHT22;9599;53.706;10.384;2023-02-10T09:05:26;5.10;99.90
18934;DHT22;9599;53.706;10.384;2023-02-10T09:07:54;5.20;99.90
18934;DHT22;9599;53.706;10.384;2023-02-10T09:10:22;5.20;99.90
18934;DHT22;9599;53.706;10.384;2023-02-10T09:12:49;5.20;99.90
18934;DHT22;9599;53.706;10.384;2023-02-10T09:15:18;5.40;99.90
18934;DHT22;9599;53.706;10.384;2023-02-10T09:17:46;5.40;99.90
18934;DHT22;9599;53.706;10.384;2023-02-10T09:20:14;5.60;99.90
18934;DHT22;9599;53.706;10.384;2023-02-10T09:22:43;5.70;99.90
18934;DHT22;9599;53.706;10.384;2023-02-10T09:25:13;5.80;99.90
18934;DHT22;9599;53.706;10.384;2023-02-10T09:27:41;5.90;99.90
18934;DHT22;9599;53.706;10.384;2023-02-10T09:30:10;5.90;99.90
18934;DHT22;9599;53.706;10.384;2023-02-10T09:32:38;5.90;99.90
18934;DHT22;9599;53.706;10.384;2023-02-10T09:35:06;5.90;99.90
18934;DHT22;9599;53.706;10.384;2023-02-10T09:37:34;5.90;99.90
18934;DHT22;9599;53.706;10.384;2023-02-10T09:40:03;5.80;99.90
18934;DHT22;9599;53.706;10.384;2023-02-10T09:42:43;5.70;99.90
18934;DHT22;9599;53.706;10.384;2023-02-10T09:45:18;5.70;99.90
18934;DHT22;9599;53.706;10.384;2023-02-10T09:47:49;5.60;99.90
18934;DHT22;9599;53.706;10.384;2023-02-10T09:50:32;5.60;99.90
18934;DHT22;9599;53.706;10.384;2023-02-10T09:53:10;5.60;99.90
18934;DHT22;9599;53.706;10.384;2023-02-10T09:55:45;5.60;99.90
18934;DHT22;9599;53.706;10.384;2023-02-10T09:58:22;5.60;99.90
18934;DHT22;9599;53.706;10.384;2023-02-10T10:00:55;5.60;99.90
18934;DHT22;9599;53.706;10.384;2023-02-10T10:03:27;5.60;99.90
18934;DHT22;9599;53.706;10.384;2023-02-10T10:06:05;5.80;99.90
18934;DHT22;9599;53.706;10.384;2023-02-10T10:08:43;5.80;99.90
18934;DHT22;9599;53.706;10.384;2023-02-10T10:11:23;5.70;99.90
18934;DHT22;9599;53.706;10.384;2023-02-10T10:13:52;5.60;99.90
18934;DHT22;9599;53.706;10.384;2023-02-10T10:16:29;5.50;99.90
18934;DHT22;9599;53.706;10.384;2023-02-10T10:19:06;5.50;99.90
18934;DHT22;9599;53.706;10.384;2023-02-10T10:21:44;5.50;99.90
18934;DHT22;9599;53.706;10.384;2023-02-10T10:24:24;5.50;99.90
18934;DHT22;9599;53.706;10.384;2023-02-10T10:27:11;5.50;99.90
18934;DHT22;9599;53.706;10.384;2023-02-10T10:29:46;5.50;99.90
18934;DHT22;9599;53.706;10.384;2023-02-10T10:32:17;5.50;99.90
18934;DHT22;9599;53.706;10.384;2023-02-10T10:34:51;5.50;99.90
18934;DHT22;9599;53.706;10.384;2023-02-10T10:37:21;5.50;99.90
18934;DHT22;9599;53.706;10.384;2023-02-10T10:39:53;5.50;99.90
18934;DHT22;9599;53.706;10.384;2023-02-10T10:42:26;5.60;99.90
18934;DHT22;9599;53.706;10.384;2023-02-10T10:45:03;5.50;99.90
18934;DHT22;9599;53.706;10.384;2023-02-10T10:47:38;5.50;99.90
18934;DHT22;9599;53.706;10.384;2023-02-10T10:50:12;5.50;99.90
18934;DHT22;9599;53.706;10.384;2023-02-10T10:52:41;5.50;99.90
18934;DHT22;9599;53.706;10.384;2023-02-10T10:55:14;5.50;99.90
18934;DHT22;9599;53.706;10.384;2023-02-10T10:57:45;5.60;99.90
18934;DHT22;9599;53.706;10.384;2023-02-10T11:00:20;5.60;99.90
18934;DHT22;9599;53.706;10.384;2023-02-10T11:02:58;5.50;99.90
18934;DHT22;9599;53.706;10.384;2023-02-10T11:05:29;5.50;99.90
18934;DHT22;9599;53.706;10.384;2023-02-10T11:07:58;5.50;99.90
18934;DHT22;9599;53.706;10.384;2023-02-10T11:10:31;5.50;99.90
18934;DHT22;9599;53.706;10.384;2023-02-10T11:13:02;5.60;99.90
18934;DHT22;9599;53.706;10.384;2023-02-10T11:15:38;5.60;99.90
18934;DHT22;9599;53.706;10.384;2023-02-10T11:18:12;5.70;99.90
18934;DHT22;9599;53.706;10.384;2023-02-10T11:20:52;5.70;99.90
18934;DHT22;9599;53.706;10.384;2023-02-10T11:23:20;5.90;99.90
18934;DHT22;9599;53.706;10.384;2023-02-10T11:25:57;6.00;99.90
18934;DHT22;9599;53.706;10.384;2023-02-10T11:28:28;6.20;99.90
18934;DHT22;9599;53.706;10.384;2023-02-10T11:30:58;6.20;99.90
18934;DHT22;9599;53.706;10.384;2023-02-10T11:33:29;6.20;99.90
18934;DHT22;9599;53.706;10.384;2023-02-10T11:36:01;6.20;99.90
18934;DHT22;9599;53.706;10.384;2023-02-10T11:38:31;6.30;99.90
18934;DHT22;9599;53.706;10.384;2023-02-10T11:41:01;6.30;99.90
18934;DHT22;9599;53.706;10.384;2023-02-10T11:43:36;6.40;99.90
18934;DHT22;9599;53.706;10.384;2023-02-10T11:46:06;6.40;99.90
18934;DHT22;9599;53.706;10.384;2023-02-10T11:48:36;6.40;99.90
18934;DHT22;9599;53.706;10.384;2023-02-10T11:51:12;6.40;99.90
18934;DHT22;9599;53.706;10.384;2023-02-10T11:53:41;6.30;99.90
18934;DHT22;9599;53.706;10.384;2023-02-10T11:56:16;6.30;99.90
18934;DHT22;9599;53.706;10.384;2023-02-10T11:58:55;6.40;99.90
18934;DHT22;9599;53.706;10.384;2023-02-10T12:01:50;6.30;99.90
18934;DHT22;9599;53.706;10.384;2023-02-10T12:04:51;6.40;99.90
18934;DHT22;9599;53.706;10.384;2023-02-10T12:07:28;6.40;99.90
18934;DHT22;9599;53.706;10.384;2023-02-10T12:10:04;6.40;99.90
18934;DHT22;9599;53.706;10.384;2023-02-10T12:12:42;6.40;99.90
18934;DHT22;9599;53.706;10.384;2023-02-10T12:15:23;6.40;99.90
18934;DHT22;9599;53.706;10.384;2023-02-10T12:18:10;6.50;99.90
18934;DHT22;9599;53.706;10.384;2023-02-10T12:20:47;6.60;99.90
18934;DHT22;9599;53.706;10.384;2023-02-10T12:23:58;6.60;99.90
18934;DHT22;9599;53.706;10.384;2023-02-10T12:26:33;6.60;99.90
18934;DHT22;9599;53.706;10.384;2023-02-10T12:29:14;6.80;99.90
18934;DHT22;9599;53.706;10.384;2023-02-10T12:31:53;6.90;99.90
18934;DHT22;9599;53.706;10.384;2023-02-10T12:34:49;6.90;99.90
18934;DHT22;9599;53.706;10.384;2023-02-10T12:37:29;6.90;99.90
18934;DHT22;9599;53.706;10.384;2023-02-10T12:40:19;6.90;99.90
18934;DHT22;9599;53.706;10.384;2023-02-10T12:42:58;6.90;99.90
18934;DHT22;9599;53.706;10.384;2023-02-10T12:45:35;6.90;99.90
18934;DHT22;9599;53.706;10.384;2023-02-10T12:48:20;7.00;99.90
18934;DHT22;9599;53.706;10.384;2023-02-10T12:51:16;7.00;99.90
18934;DHT22;9599;53.706;10.384;2023-02-10T12:53:50;6.90;99.90
18934;DHT22;9599;53.706;10.384;2023-02-10T12:56:24;6.90;99.90
18934;DHT22;9599;53.706;10.384;2023-02-10T12:58:55;7.00;99.90
18934;DHT22;9599;53.706;10.384;2023-02-10T13:01:31;7.00;99.90
18934;DHT22;9599;53.706;10.384;2023-02-10T13:04:06;7.00;99.90
18934;DHT22;9599;53.706;10.384;2023-02-10T13:06:40;7.10;99.90
18934;DHT22;9599;53.706;10.384;2023-02-10T13:09:12;7.00;99.90
18934;DHT22;9599;53.706;10.384;2023-02-10T13:11:48;7.20;99.90
18934;DHT22;9599;53.706;10.384;2023-02-10T13:14:23;7.30;99.90
18934;DHT22;9599;53.706;10.384;2023-02-10T13:16:55;7.60;99.90
18934;DHT22;9599;53.706;10.384;2023-02-10T13:19:33;7.70;99.90
18934;DHT22;9599;53.706;10.384;2023-02-10T13:22:08;7.90;99.90
18934;DHT22;9599;53.706;10.384;2023-02-10T13:24:42;7.90;99.90
18934;DHT22;9599;53.706;10.384;2023-02-10T13:27:22;7.90;99.90
18934;DHT22;9599;53.706;10.384;2023-02-10T13:30:00;7.90;99.90
18934;DHT22;9599;53.706;10.384;2023-02-10T13:32:43;7.90;99.90
18934;DHT22;9599;53.706;10.384;2023-02-10T13:35:18;7.90;99.90
18934;DHT22;9599;53.706;10.384;2023-02-10T13:37:48;7.80;99.90
18934;DHT22;9599;53.706;10.384;2023-02-10T13:40:22;7.80;99.90
18934;DHT22;9599;53.706;10.384;2023-02-10T13:42:53;7.80;99.90
18934;DHT22;9599;53.706;10.384;2023-02-10T13:45:24;7.70;99.90
18934;DHT22;9599;53.706;10.384;2023-02-10T13:47:56;7.70;99.90
18934;DHT22;9599;53.706;10.384;2023-02-10T13:50:28;7.80;99.90
18934;DHT22;9599;53.706;10.384;2023-02-10T13:53:00;7.90;99.90
18934;DHT22;9599;53.706;10.384;2023-02-10T13:55:41;7.80;99.90
18934;DHT22;9599;53.706;10.384;2023-02-10T13:58:32;7.90;99.90
18934;DHT22;9599;53.706;10.384;2023-02-10T14:01:01;7.80;99.90
18934;DHT22;9599;53.706;10.384;2023-02-10T14:03:31;8.00;99.90
18934;DHT22;9599;53.706;10.384;2023-02-10T14:06:03;8.00;99.90
18934;DHT22;9599;53.706;10.384;2023-02-10T14:08:34;8.00;99.90
18934;DHT22;9599;53.706;10.384;2023-02-10T14:11:28;8.00;99.90
18934;DHT22;9599;53.706;10.384;2023-02-10T14:13:58;8.00;99.90
18934;DHT22;9599;53.706;10.384;2023-02-10T14:16:29;8.00;99.90
18934;DHT22;9599;53.706;10.384;2023-02-10T14:18:58;8.00;99.90
18934;DHT22;9599;53.706;10.384;2023-02-10T14:21:37;7.90;99.90
18934;DHT22;9599;53.706;10.384;2023-02-10T14:24:12;7.90;99.90
18934;DHT22;9599;53.706;10.384;2023-02-10T14:26:52;7.90;99.90
18934;DHT22;9599;53.706;10.384;2023-02-10T14:29:23;7.90;99.90
18934;DHT22;9599;53.706;10.384;2023-02-10T14:31:56;7.90;99.90
18934;DHT22;9599;53.706;10.384;2023-02-10T14:34:26;7.90;99.90
18934;DHT22;9599;53.706;10.384;2023-02-10T14:36:57;7.80;99.90
18934;DHT22;9599;53.706;10.384;2023-02-10T14:39:27;7.80;99.90
18934;DHT22;9599;53.706;10.384;2023-02-10T14:41:58;7.90;99.90
18934;DHT22;9599;53.706;10.384;2023-02-10T14:44:30;7.90;99.90
18934;DHT22;9599;53.706;10.384;2023-02-10T14:47:01;8.00;99.90
18934;DHT22;9599;53.706;10.384;2023-02-10T14:49:29;8.00;99.90
18934;DHT22;9599;53.706;10.384;2023-02-10T14:52:03;7.90;99.90
18934;DHT22;9599;53.706;10.384;2023-02-10T14:54:37;7.90;99.90
18934;DHT22;9599;53.706;10.384;2023-02-10T14:57:12;7.90;99.90
18934;DHT22;9599;53.706;10.384;2023-02-10T14:59:40;7.80;99.90
18934;DHT22;9599;53.706;10.384;2023-02-10T15:02:15;7.70;99.90
18934;DHT22;9599;53.706;10.384;2023-02-10T15:04:45;7.60;99.90
18934;DHT22;9599;53.706;10.384;2023-02-10T15:07:20;7.60;99.90
18934;DHT22;9599;53.706;10.384;2023-02-10T15:09:50;7.60;99.90
18934;DHT22;9599;53.706;10.384;2023-02-10T15:12:19;7.50;99.90
18934;DHT22;9599;53.706;10.384;2023-02-10T15:14:52;7.50;99.90
18934;DHT22;9599;53.706;10.384;2023-02-10T15:17:27;7.40;99.90
18934;DHT22;9599;53.706;10.384;2023-02-10T15:19:59;7.30;99.90
18934;DHT22;9599;53.706;10.384;2023-02-10T15:22:37;7.20;99.90
18934;DHT22;9599;53.706;10.384;2023-02-10T15:25:33;7.20;99.90
18934;DHT22;9599;53.706;10.384;2023-02-10T15:28:25;7.20;99.90
18934;DHT22;9599;53.706;10.384;2023-02-10T15:30:57;7.20;99.90
18934;DHT22;9599;53.706;10.384;2023-02-10T15:33:28;7.20;99.90
18934;DHT22;9599;53.706;10.384;2023-02-10T15:38:51;7.10;99.90
18934;DHT22;9599;53.706;10.384;2023-02-10T15:41:30;7.10;99.90
18934;DHT22;9599;53.706;10.384;2023-02-10T15:43:58;7.10;99.90
18934;DHT22;9599;53.706;10.384;2023-02-10T15:46:28;7.00;99.90
18934;DHT22;9599;53.706;10.384;2023-02-10T15:49:08;7.10;99.90
18934;DHT22;9599;53.706;10.384;2023-02-10T15:51:38;7.10;99.90
18934;DHT22;9599;53.706;10.384;2023-02-10T15:54:12;7.00;99.90
18934;DHT22;9599;53.706;10.384;2023-02-10T15:56:41;7.00;99.90
18934;DHT22;9599;53.706;10.384;2023-02-10T15:59:14;7.00;99.90
18934;DHT22;9599;53.706;10.384;2023-02-10T16:01:42;6.90;99.90
18934;DHT22;9599;53.706;10.384;2023-02-10T16:04:10;6.90;99.90
18934;DHT22;9599;53.706;10.384;2023-02-10T16:06:38;6.80;99.90
18934;DHT22;9599;53.706;10.384;2023-02-10T16:09:06;6.80;99.90
18934;DHT22;9599;53.706;10.384;2023-02-10T16:11:35;6.80;99.90
18934;DHT22;9599;53.706;10.384;2023-02-10T16:14:03;6.80;99.90
18934;DHT22;9599;53.706;10.384;2023-02-10T16:16:31;6.70;99.90
18934;DHT22;9599;53.706;10.384;2023-02-10T16:18:59;6.70;99.90